Time;durP1;ratioP1;P1;durP2;ratioP2;P2;SDS_P1;SDS_P2;PMS_P1;PMS_P2;Temp;Humidity;BMP_temperature;BMP_pressure;BME280_temperature;BME280_humidity;BME280_pressure;Samples;Min_cycle;Max_cycle;Signal;HPM_P1;HPM_P2
2023/05/04 00:02:19;;;;;;;25.70;23.40;;;6.30;99.90;;;;;;4956088;28;20047;-76
2023/05/04 00:04:45;;;;;;;25.52;23.45;;;6.40;99.90;;;;;;4927777;29;20051;-77
2023/05/04 00:07:12;;;;;;;25.67;23.50;;;6.20;99.90;;;;;;4941301;28;20042;-76
2023/05/04 00:09:39;;;;;;;24.98;23.02;;;6.30;99.90;;;;;;4943257;29;20043;-76
2023/05/04 00:12:06;;;;;;;25.80;23.75;;;6.30;99.90;;;;;;4940972;28;20562;-77
2023/05/04 00:14:33;;;;;;;26.42;24.05;;;6.30;99.90;;;;;;4941742;29;20043;-75
2023/05/04 00:17:03;;;;;;;27.20;24.75;;;6.30;99.90;;;;;;4941831;28;20573;-78
2023/05/04 00:19:30;;;;;;;26.42;24.20;;;6.20;99.90;;;;;;4939369;28;20039;-76
2023/05/04 00:21:57;;;;;;;26.45;24.13;;;6.10;99.90;;;;;;4943460;28;20039;-77
2023/05/04 00:24:23;;;;;;;27.48;24.95;;;6.30;99.90;;;;;;4955726;28;20035;-76
2023/05/04 00:26:50;;;;;;;26.25;23.83;;;6.20;99.90;;;;;;4941622;28;20066;-76
2023/05/04 00:29:16;;;;;;;28.08;25.25;;;6.10;99.90;;;;;;4940623;28;20052;-76
2023/05/04 00:31:43;;;;;;;26.50;24.10;;;6.20;99.90;;;;;;4937481;28;20799;-77
2023/05/04 00:34:10;;;;;;;27.50;25.08;;;6.00;99.90;;;;;;4926165;29;20090;-75
2023/05/04 00:36:37;;;;;;;28.00;24.85;;;6.00;99.90;;;;;;4941580;28;20043;-76
2023/05/04 00:39:04;;;;;;;27.08;24.67;;;6.10;99.90;;;;;;4942238;28;20098;-76
2023/05/04 00:41:31;;;;;;;27.75;25.15;;;6.10;99.90;;;;;;4955798;28;20053;-76
2023/05/04 00:43:58;;;;;;;27.23;24.88;;;6.10;99.90;;;;;;4955612;28;20125;-76
2023/05/04 00:46:25;;;;;;;26.88;24.77;;;6.10;99.90;;;;;;4955155;28;20129;-76
2023/05/04 00:48:53;;;;;;;27.50;25.15;;;6.00;99.90;;;;;;4960071;28;20047;-76
2023/05/04 00:51:22;;;;;;;26.40;24.10;;;6.00;99.90;;;;;;4953961;28;20047;-76
2023/05/04 00:53:49;;;;;;;27.58;25.27;;;5.90;99.90;;;;;;4943878;28;20744;-76
2023/05/04 00:56:17;;;;;;;27.33;25.17;;;5.80;99.90;;;;;;4938782;28;20623;-76
2023/05/04 00:58:44;;;;;;;25.90;23.83;;;5.70;99.90;;;;;;4952573;28;20051;-76
2023/05/04 01:01:11;;;;;;;27.55;25.13;;;5.70;99.90;;;;;;4949245;28;20122;-76
2023/05/04 01:03:38;;;;;;;26.95;24.95;;;5.80;99.90;;;;;;4941702;29;20051;-76
2023/05/04 01:06:17;;;;;;;28.48;25.63;;;5.80;99.90;;;;;;4940313;28;20638;-76
2023/05/04 01:08:56;;;;;;;27.90;25.60;;;5.80;99.90;;;;;;4958037;28;20051;-76
2023/05/04 01:11:34;;;;;;;27.15;24.98;;;5.80;99.90;;;;;;4937970;28;20142;-77
2023/05/04 01:14:01;;;;;;;27.33;24.90;;;5.90;99.90;;;;;;4942992;28;20043;-76
2023/05/04 01:16:28;;;;;;;27.52;25.00;;;5.90;99.90;;;;;;4953717;28;20043;-76
2023/05/04 01:18:55;;;;;;;26.92;24.70;;;5.90;99.90;;;;;;4941203;29;20046;-76
2023/05/04 01:21:22;;;;;;;27.00;24.80;;;6.00;99.90;;;;;;4939006;28;20126;-76
2023/05/04 01:23:49;;;;;;;28.48;25.58;;;6.00;99.90;;;;;;4954848;28;20050;-77
2023/05/04 01:26:26;;;;;;;28.30;25.58;;;6.10;99.90;;;;;;4919340;29;20043;-77
2023/05/04 01:29:01;;;;;;;27.05;24.65;;;6.10;99.90;;;;;;4947858;28;20047;-76
2023/05/04 01:31:28;;;;;;;28.15;25.58;;;6.10;99.90;;;;;;4953711;28;20382;-77
2023/05/04 01:33:56;;;;;;;29.15;26.52;;;6.10;99.90;;;;;;4926027;28;20106;-76
2023/05/04 01:36:23;;;;;;;28.25;25.80;;;6.10;99.90;;;;;;4939094;28;20733;-76
2023/05/04 01:38:54;;;;;;;27.30;24.75;;;6.00;99.90;;;;;;4942827;28;20527;-75
2023/05/04 01:41:20;;;;;;;28.48;26.17;;;6.00;99.90;;;;;;4953261;28;20147;-75
2023/05/04 01:43:47;;;;;;;28.42;25.73;;;6.10;99.90;;;;;;4941337;28;20043;-76
2023/05/04 01:46:14;;;;;;;28.52;26.00;;;6.30;99.90;;;;;;4953166;28;20043;-76
2023/05/04 01:48:41;;;;;;;30.13;27.73;;;6.40;99.90;;;;;;4923771;28;20047;-76
2023/05/04 01:51:08;;;;;;;28.20;25.80;;;6.50;99.90;;;;;;4938770;28;20050;-76
2023/05/04 01:53:35;;;;;;;28.15;25.77;;;6.60;99.90;;;;;;4954337;28;20039;-75
2023/05/04 01:56:02;;;;;;;28.13;25.70;;;6.70;99.90;;;;;;4956022;28;20078;-76
2023/05/04 01:58:28;;;;;;;28.27;25.83;;;6.70;99.90;;;;;;4952925;28;20066;-76
2023/05/04 02:00:58;;;;;;;28.88;25.98;;;6.70;99.90;;;;;;4956219;28;20134;-76
2023/05/04 02:03:25;;;;;;;28.45;26.15;;;6.70;99.90;;;;;;4953375;28;20308;-75
2023/05/04 02:05:52;;;;;;;28.98;26.05;;;6.60;99.90;;;;;;4939671;28;20043;-75
2023/05/04 02:08:19;;;;;;;29.65;26.75;;;6.60;99.90;;;;;;4953503;28;20715;-75
2023/05/04 02:10:46;;;;;;;28.85;25.45;;;6.60;99.90;;;;;;4939969;28;20047;-76
2023/05/04 02:13:13;;;;;;;27.67;25.15;;;6.70;99.90;;;;;;4923593;29;20042;-77
2023/05/04 02:15:40;;;;;;;30.85;27.85;;;6.70;99.90;;;;;;4953233;28;20055;-76
2023/05/04 02:18:07;;;;;;;28.98;26.30;;;6.60;99.90;;;;;;4955039;28;20044;-74
2023/05/04 02:20:34;;;;;;;28.30;25.98;;;6.60;99.90;;;;;;4959804;28;20772;-76
2023/05/04 02:23:01;;;;;;;29.73;27.10;;;6.70;99.90;;;;;;4952074;28;20065;-75
2023/05/04 02:25:29;;;;;;;28.75;26.30;;;6.80;99.90;;;;;;4951869;28;20520;-75
2023/05/04 02:27:56;;;;;;;29.77;27.10;;;6.60;99.90;;;;;;4924293;29;20041;-76
2023/05/04 02:30:22;;;;;;;30.92;27.92;;;6.40;99.90;;;;;;4936384;28;20048;-77
2023/05/04 02:32:49;;;;;;;31.25;28.40;;;6.10;99.90;;;;;;4956077;28;20039;-76
2023/05/04 02:35:16;;;;;;;31.55;28.55;;;5.90;99.90;;;;;;4952888;28;20042;-76
2023/05/04 02:37:43;;;;;;;30.30;27.50;;;5.80;99.90;;;;;;4935933;28;20035;-76
2023/05/04 02:40:10;;;;;;;30.73;27.98;;;5.60;99.90;;;;;;4945127;28;20039;-77
2023/05/04 02:42:37;;;;;;;30.33;27.75;;;5.50;99.90;;;;;;4953753;28;20047;-75
2023/05/04 02:45:06;;;;;;;31.05;28.27;;;5.40;99.90;;;;;;4956132;28;20043;-76
2023/05/04 02:47:32;;;;;;;31.42;28.52;;;5.40;99.90;;;;;;4937005;28;20702;-77
2023/05/04 02:50:00;;;;;;;30.63;27.90;;;5.30;99.90;;;;;;4939179;29;20051;-76
2023/05/04 02:52:27;;;;;;;30.40;27.48;;;5.30;99.90;;;;;;4936278;28;20055;-76
2023/05/04 02:54:53;;;;;;;30.17;27.48;;;5.30;99.90;;;;;;4938254;28;20043;-76
2023/05/04 02:57:20;;;;;;;30.10;27.50;;;5.30;99.90;;;;;;4953488;28;20628;-74
2023/05/04 02:59:47;;;;;;;30.23;27.60;;;5.30;99.90;;;;;;4923438;29;20051;-75
2023/05/04 03:02:13;;;;;;;29.88;27.40;;;5.20;99.90;;;;;;4953842;28;20067;-76
2023/05/04 03:04:40;;;;;;;29.00;26.40;;;5.00;99.90;;;;;;4953145;28;20094;-77
2023/05/04 03:07:08;;;;;;;29.52;27.10;;;5.00;99.90;;;;;;4950066;28;20637;-75
2023/05/04 03:09:35;;;;;;;30.23;27.52;;;4.90;99.90;;;;;;4951847;28;20113;-75
2023/05/04 03:12:03;;;;;;;30.05;27.60;;;4.80;99.90;;;;;;4939224;28;20048;-76
2023/05/04 03:14:30;;;;;;;29.35;26.80;;;4.70;99.90;;;;;;4952171;28;21231;-76
2023/05/04 03:16:57;;;;;;;29.23;26.73;;;4.70;99.90;;;;;;4923182;29;20046;-77
2023/05/04 03:19:24;;;;;;;29.15;26.48;;;4.70;99.90;;;;;;4936478;28;20055;-75
2023/05/04 03:21:51;;;;;;;29.25;26.27;;;4.60;99.90;;;;;;4951441;28;20043;-75
2023/05/04 03:24:18;;;;;;;28.70;26.05;;;4.50;99.90;;;;;;4935948;29;20043;-76
2023/05/04 03:26:46;;;;;;;27.98;25.33;;;4.50;99.90;;;;;;4951544;28;20043;-75
2023/05/04 03:29:13;;;;;;;29.17;25.90;;;4.40;99.90;;;;;;4953993;28;20098;-77
2023/05/04 03:31:40;;;;;;;28.80;25.63;;;4.50;99.90;;;;;;4936935;28;20047;-76
2023/05/04 03:34:11;;;;;;;29.67;26.63;;;4.60;99.90;;;;;;4939731;28;20452;-76
2023/05/04 03:36:38;;;;;;;28.27;25.88;;;4.50;99.90;;;;;;4937102;28;20413;-75
2023/05/04 03:39:04;;;;;;;28.20;25.73;;;4.50;99.90;;;;;;4940509;29;20050;-77
2023/05/04 03:41:31;;;;;;;29.42;26.45;;;4.50;99.90;;;;;;4937590;28;20054;-76
2023/05/04 03:43:58;;;;;;;29.30;26.52;;;4.60;99.90;;;;;;4944658;29;20067;-76
2023/05/04 03:46:28;;;;;;;28.77;26.05;;;4.60;99.90;;;;;;4941987;28;20062;-77
2023/05/04 03:48:56;;;;;;;28.83;26.10;;;4.70;99.90;;;;;;4945861;28;20047;-77
2023/05/04 03:51:23;;;;;;;28.40;25.42;;;4.60;99.90;;;;;;4940698;28;20536;-77
2023/05/04 03:53:50;;;;;;;28.90;26.17;;;4.70;99.90;;;;;;4942901;28;20065;-76
2023/05/04 03:56:17;;;;;;;28.42;25.63;;;4.70;99.90;;;;;;4934234;28;20051;-76
2023/05/04 03:58:45;;;;;;;27.38;24.58;;;4.90;99.90;;;;;;4941247;29;20047;-75
2023/05/04 04:01:13;;;;;;;32.83;29.80;;;5.00;99.90;;;;;;4954956;28;20714;-76
2023/05/04 04:03:40;;;;;;;30.60;27.77;;;5.00;99.90;;;;;;4942992;29;20043;-76
2023/05/04 04:06:08;;;;;;;30.85;28.27;;;5.00;99.90;;;;;;4942877;28;20134;-75
2023/05/04 04:08:36;;;;;;;31.00;28.10;;;4.90;99.90;;;;;;4956774;28;20116;-76
2023/05/04 04:11:03;;;;;;;31.83;28.45;;;4.90;99.90;;;;;;4943603;28;20044;-76
2023/05/04 04:13:29;;;;;;;31.85;29.25;;;4.90;99.90;;;;;;4957984;28;20135;-76
2023/05/04 04:15:56;;;;;;;31.15;28.55;;;4.90;99.90;;;;;;4943362;28;20051;-74
2023/05/04 04:18:23;;;;;;;32.03;29.42;;;5.00;99.90;;;;;;4942252;28;20051;-74
2023/05/04 04:20:50;;;;;;;34.40;30.80;;;4.90;99.90;;;;;;4963263;28;20067;-75
2023/05/04 04:23:18;;;;;;;35.50;31.65;;;4.90;99.90;;;;;;4959908;28;20040;-75
2023/05/04 04:25:45;;;;;;;32.90;30.15;;;4.90;99.90;;;;;;4945189;28;20047;-75
2023/05/04 04:28:15;;;;;;;33.83;30.67;;;5.00;99.90;;;;;;4946897;28;20035;-76
2023/05/04 04:30:42;;;;;;;33.30;30.25;;;4.90;99.90;;;;;;4943442;29;20047;-75
2023/05/04 04:33:09;;;;;;;31.85;28.98;;;5.00;99.90;;;;;;4964519;28;20587;-76
2023/05/04 04:35:36;;;;;;;33.63;30.13;;;5.00;99.90;;;;;;4961976;28;20101;-76
2023/05/04 04:38:03;;;;;;;32.92;29.67;;;5.10;99.90;;;;;;4951805;28;20073;-76
2023/05/04 04:40:30;;;;;;;33.50;30.25;;;5.20;99.90;;;;;;4947188;28;20086;-76
2023/05/04 04:42:56;;;;;;;33.90;30.70;;;5.30;99.90;;;;;;4932441;29;20127;-77
2023/05/04 04:45:23;;;;;;;32.15;29.33;;;5.40;99.90;;;;;;4945499;28;20051;-76
2023/05/04 04:47:59;;;;;;;34.22;30.92;;;5.50;99.90;;;;;;4946709;28;20046;-77
2023/05/04 04:50:27;;;;;;;33.78;30.77;;;5.80;99.90;;;;;;4946416;28;20071;-76
2023/05/04 04:52:54;;;;;;;34.55;31.67;;;5.90;99.90;;;;;;4962089;28;20698;-75
2023/05/04 04:55:24;;;;;;;32.67;29.88;;;6.10;99.90;;;;;;4946083;28;20074;-76
2023/05/04 04:57:51;;;;;;;32.00;29.15;;;6.30;99.90;;;;;;4961621;28;20106;-77
2023/05/04 05:00:18;;;;;;;33.95;31.10;;;6.40;99.90;;;;;;4946605;28;20599;-76
2023/05/04 05:02:45;;;;;;;34.10;30.98;;;6.60;99.90;;;;;;4945959;28;20051;-76
2023/05/04 05:05:11;;;;;;;33.92;31.23;;;6.70;99.90;;;;;;4945679;28;20496;-76
2023/05/04 05:07:38;;;;;;;34.88;31.80;;;6.80;99.90;;;;;;4944349;28;20121;-76
2023/05/04 05:10:07;;;;;;;33.97;31.10;;;7.00;99.90;;;;;;4945991;29;20047;-77
2023/05/04 05:12:34;;;;;;;34.88;31.90;;;7.20;99.90;;;;;;4959853;28;20054;-76
2023/05/04 05:15:03;;;;;;;36.13;32.85;;;7.20;99.90;;;;;;4946724;28;20110;-75
2023/05/04 05:17:30;;;;;;;35.00;32.30;;;7.40;99.90;;;;;;4943214;29;20062;-77
2023/05/04 05:19:56;;;;;;;34.35;31.33;;;7.50;99.90;;;;;;4945539;28;20051;-75
2023/05/04 05:22:23;;;;;;;34.10;30.88;;;7.50;99.90;;;;;;4944793;28;20047;-76
2023/05/04 05:24:50;;;;;;;34.75;31.67;;;7.60;99.90;;;;;;4945339;28;20046;-76
2023/05/04 05:27:17;;;;;;;33.72;31.02;;;7.70;99.90;;;;;;4942487;28;20608;-73
2023/05/04 05:29:44;;;;;;;33.85;30.90;;;7.80;99.90;;;;;;4945140;28;20043;-74
2023/05/04 05:32:11;;;;;;;34.92;31.80;;;7.80;99.90;;;;;;4946176;28;20708;-75
2023/05/04 05:34:37;;;;;;;34.22;31.42;;;7.90;99.90;;;;;;4943551;28;20059;-75
2023/05/04 05:37:04;;;;;;;33.60;30.92;;;7.90;99.90;;;;;;4960577;28;20053;-74
2023/05/04 05:39:31;;;;;;;33.80;30.77;;;7.90;99.90;;;;;;4941618;28;20512;-76
2023/05/04 05:41:58;;;;;;;35.50;31.83;;;8.10;99.90;;;;;;4960994;28;20047;-76
2023/05/04 05:44:24;;;;;;;35.53;32.08;;;8.10;99.90;;;;;;4945231;28;20046;-75
2023/05/04 05:46:51;;;;;;;34.00;31.15;;;8.20;99.90;;;;;;4961226;28;20609;-75
2023/05/04 05:49:18;;;;;;;34.53;31.27;;;8.30;99.90;;;;;;4947289;29;20039;-77
2023/05/04 05:51:45;;;;;;;34.75;31.95;;;8.30;99.90;;;;;;4959610;28;20066;-76
2023/05/04 05:54:11;;;;;;;34.65;31.58;;;8.30;99.90;;;;;;4946842;28;20038;-76
2023/05/04 05:56:38;;;;;;;33.80;30.75;;;8.30;99.90;;;;;;4958357;28;20043;-78
2023/05/04 05:59:05;;;;;;;34.17;31.30;;;8.30;99.90;;;;;;4958554;28;20055;-77
2023/05/04 06:01:31;;;;;;;34.40;31.13;;;8.30;99.90;;;;;;4944971;28;20400;-79
2023/05/04 06:03:59;;;;;;;34.17;31.45;;;8.40;99.90;;;;;;4946581;29;20075;-77
2023/05/04 06:06:26;;;;;;;32.83;29.95;;;8.50;99.90;;;;;;4945349;28;20055;-76
2023/05/04 06:08:52;;;;;;;33.53;30.83;;;8.60;99.90;;;;;;4946724;29;20134;-77
2023/05/04 06:11:20;;;;;;;34.90;31.60;;;8.60;99.90;;;;;;4960524;28;20046;-76
2023/05/04 06:13:46;;;;;;;34.75;31.77;;;8.70;99.90;;;;;;4945687;29;20051;-77
2023/05/04 06:16:13;;;;;;;34.00;31.10;;;8.80;99.90;;;;;;4946730;28;20039;-77
2023/05/04 06:18:40;;;;;;;34.00;31.25;;;8.80;99.90;;;;;;4931590;29;20043;-76
2023/05/04 06:21:07;;;;;;;33.70;30.85;;;8.90;99.90;;;;;;4947312;28;20043;-77
2023/05/04 06:23:34;;;;;;;34.10;31.27;;;9.20;99.90;;;;;;4951539;28;20138;-75
2023/05/04 06:26:01;;;;;;;34.55;31.98;;;9.30;99.90;;;;;;4964166;28;20043;-75
2023/05/04 06:28:28;;;;;;;33.42;30.90;;;9.40;99.90;;;;;;4962326;28;20051;-76
2023/05/04 06:30:54;;;;;;;33.60;31.02;;;9.40;99.90;;;;;;4942595;28;20047;-76
2023/05/04 06:33:21;;;;;;;35.25;32.33;;;9.40;99.90;;;;;;4944683;28;20059;-74
2023/05/04 06:35:48;;;;;;;34.25;31.63;;;9.50;99.90;;;;;;4942346;28;20039;-77
2023/05/04 06:38:15;;;;;;;35.63;32.75;;;9.50;99.90;;;;;;4959031;28;20514;-76
2023/05/04 06:40:41;;;;;;;35.38;32.80;;;9.60;99.90;;;;;;4932439;28;20051;-76
2023/05/04 06:43:08;;;;;;;35.72;32.80;;;9.50;99.90;;;;;;4950173;28;20058;-75
2023/05/04 06:45:35;;;;;;;35.45;32.65;;;9.40;99.90;;;;;;4958298;28;20062;-76
2023/05/04 06:48:03;;;;;;;35.38;32.70;;;9.50;99.90;;;;;;4942617;28;20687;-76
2023/05/04 06:50:30;;;;;;;37.70;34.70;;;9.50;99.90;;;;;;4941846;28;20580;-75
2023/05/04 06:53:08;;;;;;;37.55;34.95;;;9.70;99.90;;;;;;4942534;28;20055;-75
2023/05/04 06:55:41;;;;;;;38.80;35.90;;;9.80;99.90;;;;;;4941682;28;20043;-74
2023/05/04 06:58:08;;;;;;;37.88;34.75;;;9.70;99.90;;;;;;4946080;28;20047;-75
2023/05/04 07:00:35;;;;;;;38.42;35.42;;;9.70;99.90;;;;;;4944259;28;20051;-76
2023/05/04 07:03:01;;;;;;;35.83;33.30;;;9.80;99.90;;;;;;4943542;28;20043;-76
2023/05/04 07:05:28;;;;;;;37.28;34.58;;;10.10;99.90;;;;;;4958526;28;20102;-77
2023/05/04 07:07:57;;;;;;;39.30;36.03;;;10.40;99.90;;;;;;4943039;29;20057;-75
2023/05/04 07:10:24;;;;;;;37.78;34.85;;;10.50;99.90;;;;;;4943055;28;20496;-78
2023/05/04 07:12:50;;;;;;;37.88;34.78;;;10.70;99.90;;;;;;4942126;28;20122;-76
2023/05/04 07:15:17;;;;;;;37.75;34.50;;;10.90;99.90;;;;;;4944767;28;20047;-77
2023/05/04 07:17:45;;;;;;;36.47;33.65;;;11.20;99.90;;;;;;4942066;29;20055;-75
2023/05/04 07:20:14;;;;;;;38.70;36.00;;;11.20;99.90;;;;;;4939902;28;20105;-75
2023/05/04 07:22:40;;;;;;;39.83;37.22;;;11.50;99.90;;;;;;4956108;28;20066;-75
2023/05/04 07:25:07;;;;;;;40.13;36.88;;;11.70;99.90;;;;;;4958349;28;20151;-76
2023/05/04 07:27:34;;;;;;;40.80;37.08;;;12.10;99.90;;;;;;4943300;28;20035;-74
2023/05/04 07:30:02;;;;;;;40.95;37.97;;;12.40;99.90;;;;;;4943441;29;20043;-76
2023/05/04 07:32:29;;;;;;;40.22;37.38;;;12.70;99.90;;;;;;4942740;28;20051;-75
2023/05/04 07:34:55;;;;;;;37.90;35.40;;;12.80;99.90;;;;;;4940934;29;20089;-76
2023/05/04 07:37:22;;;;;;;40.88;37.80;;;12.80;99.90;;;;;;4945593;28;20043;-76
2023/05/04 07:39:49;;;;;;;40.58;37.80;;;12.70;99.90;;;;;;4963010;28;20059;-78
2023/05/04 07:42:15;;;;;;;44.00;40.72;;;12.80;99.90;;;;;;4947328;28;20054;-75
2023/05/04 07:44:42;;;;;;;43.72;40.70;;;12.90;99.90;;;;;;4944592;28;20051;-74
2023/05/04 07:47:09;;;;;;;41.30;38.42;;;13.00;99.90;;;;;;4943089;29;20338;-75
2023/05/04 07:49:36;;;;;;;40.90;38.35;;;13.00;99.90;;;;;;4945935;29;20043;-75
2023/05/04 07:52:03;;;;;;;41.47;38.50;;;13.20;99.90;;;;;;4942662;28;20039;-78
2023/05/04 07:54:30;;;;;;;43.05;40.33;;;13.10;99.90;;;;;;4960400;28;20082;-75
2023/05/04 07:56:56;;;;;;;44.08;40.90;;;13.30;99.90;;;;;;4944766;28;20050;-78
2023/05/04 07:59:23;;;;;;;44.72;41.50;;;13.50;99.90;;;;;;4962794;28;20058;-78
2023/05/04 08:01:50;;;;;;;45.30;42.10;;;13.70;99.90;;;;;;4961221;28;20102;-74
2023/05/04 08:04:17;;;;;;;43.03;40.20;;;13.60;99.90;;;;;;4947844;28;20150;-77
2023/05/04 08:06:44;;;;;;;44.13;41.22;;;13.60;99.90;;;;;;4945779;28;20134;-76
2023/05/04 08:09:11;;;;;;;45.05;41.63;;;13.50;99.90;;;;;;4946322;28;20046;-74
2023/05/04 08:11:41;;;;;;;45.08;41.83;;;13.60;99.90;;;;;;4946089;28;20409;-76
2023/05/04 08:14:07;;;;;;;44.55;41.67;;;13.80;99.90;;;;;;4952938;28;20050;-74
2023/05/04 08:16:35;;;;;;;45.08;42.08;;;14.20;99.90;;;;;;4945324;28;20706;-75
2023/05/04 08:19:01;;;;;;;45.25;42.17;;;14.30;99.90;;;;;;4945451;28;20066;-74
2023/05/04 08:21:28;;;;;;;45.72;42.42;;;14.20;99.90;;;;;;4960105;28;20548;-75
2023/05/04 08:23:55;;;;;;;47.70;44.22;;;14.20;99.90;;;;;;4945892;29;20074;-74
2023/05/04 08:26:22;;;;;;;46.38;43.03;;;14.50;99.90;;;;;;4945972;28;20106;-73
2023/05/04 08:28:49;;;;;;;46.88;43.30;;;14.70;99.90;;;;;;4944553;28;20043;-75
2023/05/04 08:31:17;;;;;;;47.08;43.95;;;14.40;99.90;;;;;;4955834;28;20047;-75
2023/05/04 08:33:47;;;;;;;43.53;40.78;;;14.70;99.90;;;;;;4929670;28;20059;-76
2023/05/04 08:36:14;;;;;;;49.22;45.95;;;15.20;99.90;;;;;;4944013;28;20043;-75
2023/05/04 08:38:41;;;;;;;46.03;42.75;;;15.60;99.90;;;;;;4943832;29;20141;-73
2023/05/04 08:41:09;;;;;;;45.63;42.42;;;15.60;99.90;;;;;;4944547;28;20047;-76
2023/05/04 08:43:36;;;;;;;48.58;44.90;;;15.60;99.90;;;;;;4934214;28;20719;-74
2023/05/04 08:46:04;;;;;;;47.78;44.30;;;15.40;99.90;;;;;;4959460;28;20696;-75
2023/05/04 08:48:34;;;;;;;46.60;43.40;;;15.10;99.90;;;;;;4945411;28;20053;-75
2023/05/04 08:51:03;;;;;;;45.78;42.72;;;15.00;99.90;;;;;;4943889;28;20043;-76
2023/05/04 08:53:31;;;;;;;46.47;43.08;;;15.10;99.90;;;;;;4940770;28;20541;-73
2023/05/04 08:56:02;;;;;;;45.95;42.75;;;15.20;99.90;;;;;;4943414;28;20063;-74
2023/05/04 08:58:30;;;;;;;45.78;42.67;;;15.20;99.90;;;;;;4945955;28;20059;-72
2023/05/04 09:00:59;;;;;;;45.42;42.15;;;15.50;99.90;;;;;;4959852;28;20476;-75
2023/05/04 09:03:28;;;;;;;47.03;43.80;;;15.30;99.90;;;;;;4945530;28;20102;-75
2023/05/04 09:05:56;;;;;;;46.88;43.60;;;15.00;99.90;;;;;;4940267;28;20047;-73
2023/05/04 09:08:23;;;;;;;46.63;43.50;;;15.00;99.90;;;;;;4943561;29;20408;-72
2023/05/04 09:10:50;;;;;;;47.10;43.65;;;15.40;99.90;;;;;;4941391;28;20043;-77
2023/05/04 09:13:17;;;;;;;50.50;46.72;;;15.50;99.90;;;;;;4944998;28;20031;-74
2023/05/04 09:15:56;;;;;;;46.75;43.50;;;15.50;99.90;;;;;;4943234;28;20039;-74
2023/05/04 09:18:23;;;;;;;47.10;43.92;;;15.90;99.90;;;;;;4960551;28;20420;-76
2023/05/04 09:20:50;;;;;;;48.33;44.83;;;16.20;99.90;;;;;;4944411;28;20110;-74
2023/05/04 09:23:17;;;;;;;49.17;45.72;;;15.80;99.90;;;;;;4946069;28;20145;-74
2023/05/04 09:25:51;;;;;;;48.63;45.35;;;15.70;99.90;;;;;;4939418;28;20051;-76
2023/05/04 09:28:32;;;;;;;47.33;44.13;;;15.80;99.90;;;;;;4941626;29;20500;-74
2023/05/04 09:30:59;;;;;;;48.35;44.88;;;15.50;99.90;;;;;;4957863;28;20043;-75
2023/05/04 09:33:27;;;;;;;48.22;44.72;;;15.60;99.90;;;;;;4944941;28;20074;-76
2023/05/04 09:35:56;;;;;;;46.38;43.45;;;15.90;99.90;;;;;;4942412;28;20039;-74
2023/05/04 09:38:27;;;;;;;50.00;46.13;;;16.20;99.90;;;;;;4946871;28;20650;-74
2023/05/04 09:40:54;;;;;;;48.30;45.00;;;16.00;99.90;;;;;;4955221;28;20090;-74
2023/05/04 09:43:23;;;;;;;47.53;44.10;;;15.90;99.90;;;;;;4954951;28;20051;-73
2023/05/04 09:45:50;;;;;;;48.00;44.70;;;16.10;99.90;;;;;;4935458;28;20046;-75
2023/05/04 09:48:24;;;;;;;47.00;43.75;;;16.40;99.90;;;;;;4939413;28;20033;-74
2023/05/04 09:50:59;;;;;;;48.35;45.08;;;16.40;99.90;;;;;;4934398;28;20050;-75
2023/05/04 09:53:28;;;;;;;48.20;44.75;;;16.30;99.90;;;;;;4938820;28;20065;-74
2023/05/04 09:55:57;;;;;;;47.42;43.38;;;16.30;99.90;;;;;;4950528;28;20035;-74
2023/05/04 09:58:29;;;;;;;46.65;43.42;;;16.50;99.90;;;;;;4937456;29;20145;-73
2023/05/04 10:00:59;;;;;;;46.83;43.65;;;16.30;99.90;;;;;;4950182;28;20039;-74
2023/05/04 10:03:27;;;;;;;48.47;45.13;;;16.30;99.90;;;;;;4939895;28;20134;-74
2023/05/04 10:05:53;;;;;;;51.08;47.45;;;16.30;99.90;;;;;;4949795;28;20958;-75
2023/05/04 10:08:22;;;;;;;50.20;46.60;;;16.30;99.90;;;;;;4937923;28;20222;-74
2023/05/04 10:10:50;;;;;;;50.88;47.58;;;16.20;99.90;;;;;;4951332;28;20138;-74
2023/05/04 10:13:16;;;;;;;48.35;44.80;;;16.20;99.90;;;;;;4939291;28;20512;-76
2023/05/04 10:16:05;;;;;;;46.75;43.53;;;16.60;99.90;;;;;;4936415;28;20063;-74
2023/05/04 10:19:09;;;;;;;48.28;44.83;;;16.70;99.90;;;;;;4936940;29;20047;-74
2023/05/04 10:21:54;;;;;;;49.08;45.88;;;16.50;99.90;;;;;;4937264;28;20083;-75
2023/05/04 10:24:44;;;;;;;48.60;45.42;;;16.90;99.90;;;;;;4954573;28;20062;-75
2023/05/04 10:27:14;;;;;;;49.47;46.13;;;17.00;99.90;;;;;;4942538;28;20466;-75
2023/05/04 10:29:41;;;;;;;51.42;48.03;;;17.20;99.90;;;;;;4936267;28;20076;-75
2023/05/04 10:32:21;;;;;;;51.20;47.70;;;17.10;99.90;;;;;;4935020;28;20114;-74
2023/05/04 10:34:49;;;;;;;48.55;45.10;;;16.80;99.90;;;;;;4934123;29;20059;-73
2023/05/04 10:37:21;;;;;;;49.88;46.42;;;17.00;99.90;;;;;;4935500;28;20031;-75
2023/05/04 10:39:54;;;;;;;49.70;46.30;;;17.20;99.90;;;;;;4934459;28;20718;-73
2023/05/04 10:42:21;;;;;;;52.25;48.58;;;17.70;99.90;;;;;;4936703;28;20055;-75
2023/05/04 10:44:53;;;;;;;51.60;48.13;;;17.90;99.90;;;;;;4935097;29;20062;-75
2023/05/04 10:47:34;;;;;;;50.72;47.40;;;18.00;99.90;;;;;;4934608;28;20134;-75
2023/05/04 10:50:14;;;;;;;53.00;49.05;;;17.90;99.90;;;;;;4934956;28;20389;-74
2023/05/04 10:52:49;;;;;;;52.78;49.13;;;17.40;99.90;;;;;;4936219;28;20105;-75
2023/05/04 10:55:16;;;;;;;;;;;17.40;99.90;;;;;;4933431;28;20035;-75
2023/05/04 10:57:50;;;;;;;50.40;46.75;;;17.30;99.90;;;;;;4936530;28;19961;-74
2023/05/04 11:00:18;;;;;;;50.75;47.15;;;17.20;99.90;;;;;;4931706;28;20845;-75
2023/05/04 11:02:46;;;;;;;49.17;46.05;;;17.40;99.90;;;;;;4936923;28;20077;-74
2023/05/04 11:05:18;;;;;;;48.58;45.25;;;17.50;99.90;;;;;;4934705;28;20443;-74
2023/05/04 11:07:49;;;;;;;51.20;47.75;;;17.70;99.90;;;;;;4936177;28;20159;-74
2023/05/04 11:10:25;;;;;;;48.35;45.22;;;17.60;99.90;;;;;;4935438;28;20039;-73
2023/05/04 11:12:54;;;;;;;48.85;45.50;;;17.70;99.90;;;;;;4918116;28;20053;-75
2023/05/04 11:15:21;;;;;;;50.72;47.33;;;17.80;99.90;;;;;;4937705;28;20039;-75
2023/05/04 11:17:51;;;;;;;52.05;48.13;;;17.70;99.90;;;;;;4950489;28;20062;-74
2023/05/04 11:20:23;;;;;;;51.92;48.17;;;17.60;99.90;;;;;;4936283;28;20053;-75
2023/05/04 11:22:50;;;;;;;50.20;46.47;;;17.50;99.90;;;;;;4952539;28;20039;-73
2023/05/04 11:25:29;;;;;;;49.75;46.08;;;17.80;99.90;;;;;;4920400;28;20102;-75
2023/05/04 11:27:57;;;;;;;49.42;45.92;;;18.00;99.90;;;;;;4931825;28;20071;-74
2023/05/04 11:30:32;;;;;;;49.67;46.35;;;17.70;99.90;;;;;;4935248;28;20501;-75
2023/05/04 11:33:00;;;;;;;53.00;49.13;;;17.90;99.90;;;;;;4933376;28;20071;-74
2023/05/04 11:35:27;;;;;;;51.08;47.47;;;18.30;99.90;;;;;;4937727;28;20031;-75
2023/05/04 11:37:55;;;;;;;52.58;49.08;;;18.30;99.90;;;;;;4934037;29;20058;-74
2023/05/04 11:40:24;;;;;;;51.40;47.92;;;18.30;99.90;;;;;;4934599;28;20044;-74
2023/05/04 11:42:52;;;;;;;51.15;47.72;;;18.30;99.90;;;;;;4936057;28;20050;-75
2023/05/04 11:45:27;;;;;;;50.63;47.28;;;18.10;99.90;;;;;;4933405;28;20062;-74
2023/05/04 11:47:55;;;;;;;50.78;47.42;;;18.10;99.90;;;;;;4935410;28;20039;-75
2023/05/04 11:50:24;;;;;;;50.75;46.92;;;18.40;99.90;;;;;;4936205;28;20151;-74
2023/05/04 11:52:50;;;;;;;50.33;47.20;;;18.50;99.90;;;;;;4935730;28;20134;-74
2023/05/04 11:55:28;;;;;;;51.33;48.22;;;18.60;99.90;;;;;;4949720;28;20039;-75
2023/05/04 11:58:00;;;;;;;50.00;46.78;;;18.50;99.90;;;;;;4934203;29;20043;-74
2023/05/04 12:00:41;;;;;;;50.88;47.35;;;18.40;99.90;;;;;;4937282;28;20121;-74
2023/05/04 12:03:24;;;;;;;51.72;48.15;;;18.00;99.90;;;;;;4933925;28;20039;-74
2023/05/04 12:06:01;;;;;;;52.45;48.95;;;18.20;99.90;;;;;;4933550;28;20040;-75
2023/05/04 12:08:33;;;;;;;54.70;51.15;;;18.20;99.90;;;;;;4946034;28;20047;-74
2023/05/04 12:11:15;;;;;;;53.65;50.03;;;18.10;99.90;;;;;;4944081;28;20051;-74
2023/05/04 12:13:46;;;;;;;53.10;49.80;;;18.30;99.90;;;;;;4935709;29;20073;-74
2023/05/04 12:16:14;;;;;;;51.88;48.55;;;18.10;99.90;;;;;;4933515;28;20170;-74
2023/05/04 12:18:43;;;;;;;50.95;47.67;;;18.40;99.90;;;;;;4936161;29;20685;-75
2023/05/04 12:21:13;;;;;;;51.90;48.60;;;18.30;99.90;;;;;;4935202;28;20039;-75
2023/05/04 12:23:41;;;;;;;54.45;50.85;;;18.30;99.90;;;;;;4937618;28;20047;-75
2023/05/04 12:26:09;;;;;;;52.05;48.80;;;18.30;99.90;;;;;;4950260;28;20118;-75
2023/05/04 12:28:37;;;;;;;55.08;51.88;;;18.30;99.90;;;;;;4936333;28;20637;-74
2023/05/04 12:31:05;;;;;;;54.70;50.85;;;18.30;99.90;;;;;;4932813;28;20043;-74
2023/05/04 12:33:33;;;;;;;50.97;47.70;;;18.50;99.90;;;;;;4936402;28;20047;-75
2023/05/04 12:36:01;;;;;;;53.30;49.85;;;18.80;99.90;;;;;;4935646;28;20061;-76
2023/05/04 12:38:28;;;;;;;53.50;50.22;;;19.10;99.90;;;;;;4937744;28;20062;-74
2023/05/04 12:41:02;;;;;;;54.20;50.90;;;19.20;99.90;;;;;;4945676;28;20039;-74